FW2194 Aldie VA US current weather conditions

sailwx.info

Wind from 313 at 3 knots gusting 10

Air temperature 6.1° C
Dewpoint -5.5° C

Last reported at 2020-Jan-28 22:04 UTC.
Time now 2020-Jan-28 22:25 UTC

Location: N 38°58' W 077°34'.
View on Google Maps.

See reports from other nearby stations

  
Tides and Currents Weather Stations Pressure Air Temp Water Temp Dewpoint Dewpoint Depression Visibility Wind Speed Wind Dir Waves Ship Positions
date/time (UTC)wind fromknots sea level pressurealtimeterstation pressurevisibilityair tempwater tempwave heightnotes
2020-Jan-28 22:09 348 3 gusting 10 6.1
2020-Jan-28 22:04 313 3 gusting 10 6.1
2020-Jan-28 21:59 349 4 gusting 8 6.1
2020-Jan-28 21:54 318 4 gusting 10 6.1
2020-Jan-28 21:49 241 0 gusting 4 6.1
2020-Jan-28 21:44 299 2 gusting 8 6.1
2020-Jan-28 21:39 321 1 gusting 4 6.1
2020-Jan-28 21:34 297 1 gusting 5 6.7
2020-Jan-28 21:29 307 1 gusting 6 6.7
2020-Jan-28 21:24 325 1 gusting 6 6.7
2020-Jan-28 21:19 300 2 gusting 10 6.7
2020-Jan-28 21:14 255 4 gusting 11 6.7
2020-Jan-28 21:09 333 3 gusting 10 6.7
2020-Jan-28 21:04 347 3 gusting 8 6.7
2020-Jan-28 20:59 344 3 gusting 6 6.7
2020-Jan-28 20:54 335 1 gusting 7 6.7
2020-Jan-28 20:49 325 2 gusting 5 7.2
2020-Jan-28 20:44 358 4 gusting 11 7.2
2020-Jan-28 20:39 344 2 gusting 7 7.2
2020-Jan-28 20:34 265 2 gusting 8 7.2
2020-Jan-28 20:29 272 1 gusting 5 7.2
2020-Jan-28 20:24 286 2 gusting 4 7.2
2020-Jan-28 20:19 343 1 gusting 4 7.2
2020-Jan-28 20:14 297 1 gusting 5 7.2
2020-Jan-28 20:09 326 4 gusting 11 7.2
2020-Jan-28 20:04 285 2 gusting 8 7.2
2020-Jan-28 19:59 324 5 gusting 10 7.2
2020-Jan-28 19:54 282 3 gusting 10 7.2
2020-Jan-28 19:49 307 3 gusting 11 7.2
2020-Jan-28 19:44 338 4 gusting 12 7.2
2020-Jan-28 19:39 322 4 gusting 12 7.2
2020-Jan-28 19:34 340 4 gusting 13 7.2
2020-Jan-28 19:29 298 5 gusting 17 7.2
2020-Jan-28 19:24 326 4 gusting 11 6.7
2020-Jan-28 19:19 334 4 gusting 11 6.7
2020-Jan-28 19:14 315 5 gusting 10 6.7
2020-Jan-28 19:09 326 5 gusting 13 6.7
2020-Jan-28 19:04 340 2 gusting 10 6.7
2020-Jan-28 18:59 266 2 gusting 10 6.7
2020-Jan-28 18:54 257 3 gusting 6 6.7
2020-Jan-28 18:49 302 2 gusting 7 6.7
2020-Jan-28 18:44 276 1 gusting 7 6.7
2020-Jan-28 18:39 294 1 gusting 10 6.7
2020-Jan-28 18:34 323 3 gusting 8 6.1
2020-Jan-28 18:29 313 4 gusting 11 6.1
2020-Jan-28 18:24 278 2 gusting 7 6.1
2020-Jan-28 18:19 262 2 gusting 8 6.7
2020-Jan-28 18:14 257 2 gusting 6 6.1
2020-Jan-28 18:09 312 3 gusting 8 6.1
2020-Jan-28 18:04 261 2 gusting 8 6.1
2020-Jan-28 17:59 284 2 gusting 10 6.1
2020-Jan-28 17:54 267 2 gusting 11 6.1
2020-Jan-28 17:49 313 2 gusting 7 6.1
2020-Jan-28 17:44 310 3 gusting 7 6.1
2020-Jan-28 17:39 280 2 gusting 5 6.1
2020-Jan-28 17:34 303 1 gusting 4 6.1
2020-Jan-28 17:29 004 1 gusting 6 6.1
2020-Jan-28 17:24 305 1 gusting 8 6.1
2020-Jan-28 17:19 288 2 gusting 10 6.1
2020-Jan-28 17:14 332 1 gusting 7 6.1
2020-Jan-28 17:09 305 1 gusting 4 6.1
2020-Jan-28 17:04 316 1 gusting 6 6.1
2020-Jan-28 16:59 307 2 gusting 11 5.6
2020-Jan-28 16:54 347 3 gusting 6 6.1
2020-Jan-28 16:49 280 3 gusting 6 6.1
2020-Jan-28 16:44 241 2 gusting 4 6.1
2020-Jan-28 16:39 343 3 gusting 8 6.1
2020-Jan-28 16:34 331 2 gusting 7 6.1
2020-Jan-28 16:29 259 2 gusting 10 6.1
2020-Jan-28 16:24 307 2 gusting 10 6.1
2020-Jan-28 16:19 332 4 gusting 10 6.7
2020-Jan-28 16:14 329 1 gusting 7 6.7
2020-Jan-28 16:09 330 2 gusting 7 7.2
2020-Jan-28 16:04 308 4 gusting 12 7.2
2020-Jan-28 15:59 290 2 gusting 7 6.7
2020-Jan-28 15:54 321 4 gusting 10 6.7
2020-Jan-28 15:49 309 2 gusting 7 6.1
2020-Jan-28 15:44 322 2 gusting 10 5.6
2020-Jan-28 15:39 285 1 gusting 10 5.6
2020-Jan-28 15:34 315 5 gusting 12 5.6
2020-Jan-28 15:29 314 3 gusting 6 5.6
2020-Jan-28 15:24 266 1 gusting 12 5.6
2020-Jan-28 15:19 304 2 gusting 12 5.6
2020-Jan-28 15:14 331 3 gusting 8 6.1
2020-Jan-28 15:09 323 4 gusting 8 6.1
2020-Jan-28 15:04 282 4 gusting 10 6.1
2020-Jan-28 14:59 291 2 gusting 8 6.7
2020-Jan-28 14:54 328 3 gusting 6 6.7
2020-Jan-28 14:49 352 6 gusting 14 6.7
2020-Jan-28 14:44 262 4 gusting 13 6.7
2020-Jan-28 14:39 336 2 gusting 7 6.7
2020-Jan-28 14:34 346 3 gusting 7 6.1
2020-Jan-28 14:29 314 2 gusting 5 6.1
2020-Jan-28 14:24 276 2 gusting 13 5.6
2020-Jan-28 14:19 315 5 gusting 8 5.0
2020-Jan-28 14:14 292 2 gusting 4 5.0
2020-Jan-28 14:09 324 4 gusting 13 5.0
2020-Jan-28 14:04 245 2 gusting 10 5.0
2020-Jan-28 13:59 343 5 gusting 12 5.6
2020-Jan-28 13:54 279 3 gusting 10 5.6
2020-Jan-28 13:49 293 2 gusting 8 5.0
2020-Jan-28 13:44 320 3 gusting 8 4.4
2020-Jan-28 13:39 249 1 gusting 5 4.4
2020-Jan-28 13:34 324 1 gusting 5 3.9
2020-Jan-28 13:29 287 1 gusting 6 3.9
2020-Jan-28 13:24 331 1 gusting 6 3.9
2020-Jan-28 13:19 239 1 gusting 2 3.9
2020-Jan-28 13:14 270 0 gusting 5 3.9
2020-Jan-28 13:09 306 1 gusting 5 3.9
2020-Jan-28 13:04 250 1 gusting 5 3.9
2020-Jan-28 12:59 317 2 gusting 4 3.9
2020-Jan-28 12:54 331 2 gusting 8 3.3
2020-Jan-28 12:49 322 2 gusting 5 3.3
2020-Jan-28 12:44 315 1 gusting 4 3.3
2020-Jan-28 12:39 323 1 gusting 4 3.3
2020-Jan-28 12:34 296 2 gusting 6 3.3
2020-Jan-28 12:29 306 2 gusting 7 3.3
2020-Jan-28 12:24 292 2 gusting 7 3.3
2020-Jan-28 12:19 281 1 gusting 5 3.3
2020-Jan-28 12:14 320 3 gusting 8 3.3
2020-Jan-28 12:09 328 2 gusting 8 3.3
2020-Jan-28 12:04 246 1 gusting 8 3.3
2020-Jan-28 11:59 319 3 gusting 7 3.3
2020-Jan-28 11:54 312 1 gusting 5 3.3
2020-Jan-28 11:49 309 1 gusting 6 3.3
2020-Jan-28 11:44 295 3 gusting 10 3.3
2020-Jan-28 11:39 242 3 gusting 10 3.3
2020-Jan-28 11:34 234 2 gusting 5 3.3
2020-Jan-28 11:29 252 2 gusting 11 3.9
2020-Jan-28 11:24 246 4 gusting 8 3.9
2020-Jan-28 11:19 297 2 gusting 10 3.9
2020-Jan-28 11:14 267 4 gusting 10 3.9
2020-Jan-28 11:09 329 4 gusting 10 3.9
2020-Jan-28 11:04 326 3 gusting 11 3.9
2020-Jan-28 10:59 303 1 gusting 11 3.9
2020-Jan-28 10:54 323 2 gusting 11 3.9
2020-Jan-28 10:49 334 2 gusting 8 3.9
2020-Jan-28 10:44 334 3 gusting 7 3.9
2020-Jan-28 10:39 260 2 gusting 7 3.9
2020-Jan-28 10:34 280 0 gusting 4 3.9
2020-Jan-28 10:29 321 1 gusting 2 3.9
2020-Jan-28 10:24 270 2 gusting 7 3.9
2020-Jan-28 10:19 310 2 gusting 4 3.9
2020-Jan-28 10:14 318 0 gusting 2 3.9
2020-Jan-28 10:09 049 1 gusting 5 3.9
2020-Jan-28 10:04 290 0 gusting 4 3.9
2020-Jan-28 09:59 262 1 gusting 5 3.9
2020-Jan-28 09:54 311 1 gusting 6 3.9
2020-Jan-28 09:49 292 2 gusting 8 3.9
2020-Jan-28 09:44 333 3 gusting 6 3.9
2020-Jan-28 09:39 314 1 gusting 10 3.9
2020-Jan-28 09:34 308 1 gusting 10 3.9
2020-Jan-28 09:29 318 3 gusting 7 3.9
2020-Jan-28 09:24 316 1 gusting 13 3.9
2020-Jan-28 09:19 319 3 gusting 6 3.9
2020-Jan-28 09:14 328 2 gusting 4 3.9
2020-Jan-28 09:09 013 1 gusting 6 3.9
2020-Jan-28 09:04 288 2 gusting 5 3.9
2020-Jan-28 08:59 276 2 gusting 5 3.9
2020-Jan-28 08:54 282 2 gusting 5 3.9
2020-Jan-28 08:49 269 0 gusting 4 3.9
2020-Jan-28 08:44 358 0 gusting 5 3.9
2020-Jan-28 08:39 326 0 gusting 5 3.9
2020-Jan-28 08:34 339 0 gusting 4 3.9
2020-Jan-28 08:29 348 1 gusting 2 3.9
2020-Jan-28 08:24 015 1 gusting 4 3.9
2020-Jan-28 08:19 346 0 gusting 4 3.9
2020-Jan-28 08:14 278 1 gusting 5 3.3
2020-Jan-28 08:09 296 1 gusting 5 3.3
2020-Jan-28 08:04 250 3.3
2020-Jan-28 07:59 329 0 gusting 2 3.9
2020-Jan-28 07:54 331 0 gusting 2 3.9
2020-Jan-28 07:49 340 3.9
2020-Jan-28 07:44 341 0 gusting 2 3.9
2020-Jan-28 07:39 348 0 gusting 4 3.9
2020-Jan-28 07:34 343 3.9
2020-Jan-28 07:29 315 1 gusting 2 3.9
2020-Jan-28 07:24 282 1 gusting 4 3.9
2020-Jan-28 07:19 328 2 gusting 5 3.9
2020-Jan-28 07:14 321 0 gusting 4 3.9
2020-Jan-28 07:09 281 1 gusting 2 3.9
2020-Jan-28 07:04 338 2 gusting 6 3.9
2020-Jan-28 06:59 327 2 gusting 8 3.9
2020-Jan-28 06:54 304 1 gusting 4 3.9
2020-Jan-28 06:49 299 2 gusting 5 3.9
2020-Jan-28 06:44 328 2 gusting 10 3.9
2020-Jan-28 06:39 307 1 gusting 4 3.9
2020-Jan-28 06:34 300 2 gusting 5 3.9
2020-Jan-28 06:29 354 2 gusting 6 3.9
2020-Jan-28 06:24 008 1 gusting 5 3.9
2020-Jan-28 06:19 308 2 gusting 6 3.9
2020-Jan-28 06:14 323 1 gusting 2 3.9
2020-Jan-28 06:09 302 2 gusting 5 3.9
2020-Jan-28 06:04 318 2 gusting 6 3.9
2020-Jan-28 05:59 275 2 gusting 5 3.9
2020-Jan-28 05:54 341 1 gusting 10 3.9
2020-Jan-28 05:49 334 4 gusting 10 3.9
2020-Jan-28 05:44 262 1 gusting 5 3.9
2020-Jan-28 05:39 313 1 gusting 6 3.9
2020-Jan-28 05:34 306 2 gusting 6 3.9
2020-Jan-28 05:29 326 2 gusting 6 3.9
2020-Jan-28 05:24 300 2 gusting 7 3.9
2020-Jan-28 05:19 291 0 gusting 2 3.9
2020-Jan-28 05:14 239 3 gusting 8 3.9
2020-Jan-28 05:09 319 1 gusting 6 3.9
2020-Jan-28 05:04 269 2 gusting 8 3.9
2020-Jan-28 04:59 270 0 gusting 2 3.9
2020-Jan-28 04:54 270 0 gusting 5 3.9
2020-Jan-28 04:49 319 1 gusting 4 3.9
2020-Jan-28 04:44 328 0 gusting 5 3.9
2020-Jan-28 04:39 326 1 gusting 5 4.4
2020-Jan-28 04:34 324 0 gusting 4 4.4
2020-Jan-28 04:29 267 0 gusting 5 4.4
2020-Jan-28 04:24 308 1 gusting 5 4.4
2020-Jan-28 04:19 245 1 gusting 2 4.4
2020-Jan-28 04:14 294 2 gusting 6 4.4
2020-Jan-28 04:09 018 1 gusting 4 4.4
2020-Jan-28 04:04 327 1 gusting 6 4.4
2020-Jan-28 03:59 274 1 gusting 4 4.4
2020-Jan-28 03:54 232 1 gusting 5 4.4
2020-Jan-28 03:49 259 1 gusting 4 4.4
2020-Jan-28 03:44 303 1 gusting 7 4.4
2020-Jan-28 03:39 327 1 gusting 2 4.4
2020-Jan-28 03:34 313 1 gusting 5 4.4
2020-Jan-28 03:29 305 1 gusting 2 4.4
2020-Jan-28 03:24 272 2 gusting 6 4.4
2020-Jan-28 03:19 305 2 gusting 8 4.4
2020-Jan-28 03:14 340 2 gusting 8 4.4
2020-Jan-28 03:09 345 1 gusting 4 4.4
2020-Jan-28 03:04 342 0 gusting 2 4.4
2020-Jan-28 02:59 226 1 gusting 2 4.4
2020-Jan-28 02:54 239 1 gusting 2 4.4
2020-Jan-28 02:49 323 0 gusting 2 4.4
2020-Jan-28 02:44 325 1 gusting 4 4.4
2020-Jan-28 02:39 269 1 gusting 4 4.4
2020-Jan-28 02:34 307 0 gusting 4 4.4
2020-Jan-28 02:29 322 1 gusting 2 5.0
2020-Jan-28 02:24 322 1 gusting 5 5.0
2020-Jan-28 02:19 312 2 gusting 4 5.0
2020-Jan-28 02:14 289 1 gusting 5 5.0
2020-Jan-28 02:09 261 0 gusting 4 5.0
2020-Jan-28 02:04 036 0 gusting 7 5.0
2020-Jan-28 01:59 261 1 gusting 6 5.0
2020-Jan-28 01:54 298 1 gusting 5 5.0
2020-Jan-28 01:49 337 2 gusting 5 5.0
2020-Jan-28 01:44 323 2 gusting 5 5.0
2020-Jan-28 01:39 300 2 gusting 5 5.0
2020-Jan-28 01:34 318 1 gusting 2 5.0
2020-Jan-28 01:29 323 0 gusting 5 5.0
2020-Jan-28 01:24 279 1 gusting 5 5.0
2020-Jan-28 01:19 277 1 gusting 6 5.0
2020-Jan-28 01:14 310 2 gusting 6 5.0
2020-Jan-28 01:09 261 2 gusting 6 5.0
2020-Jan-28 01:04 331 0 gusting 2 5.0
2020-Jan-28 00:59 311 1 gusting 2 5.0
2020-Jan-28 00:54 297 0 gusting 4 5.0
2020-Jan-28 00:49 326 1 gusting 4 5.0
2020-Jan-28 00:44 316 1 gusting 5 5.0
2020-Jan-28 00:39 320 1 gusting 4 5.0
2020-Jan-28 00:34 317 1 gusting 4 5.0
2020-Jan-28 00:29 316 2 gusting 5 5.0
2020-Jan-28 00:24 306 1 gusting 6 5.0
2020-Jan-28 00:19 312 1 gusting 7 5.0
2020-Jan-28 00:14 326 1 gusting 5 5.0
2020-Jan-28 00:09 304 1 gusting 6 5.0
2020-Jan-28 00:04 337 3 gusting 6 5.0
2020-Jan-27 23:59 323 1 gusting 8 5.0
2020-Jan-27 23:54 270 3 gusting 8 5.0
2020-Jan-27 23:49 276 4 gusting 7 5.0
2020-Jan-27 23:44 343 2 gusting 8 5.0
2020-Jan-27 23:39 306 2 gusting 7 5.0
2020-Jan-27 23:34 338 2 gusting 10 5.6
2020-Jan-27 23:29 333 4 gusting 12 5.6
2020-Jan-27 23:24 310 4 gusting 11 5.6
2020-Jan-27 23:19 289 5 gusting 10 5.6
2020-Jan-27 23:14 301 2 gusting 10 5.6
2020-Jan-27 23:09 321 4 gusting 10 5.6
2020-Jan-27 23:04 307 3 gusting 10 5.6
2020-Jan-27 22:59 338 3 gusting 6 5.6
2020-Jan-27 22:54 323 4 gusting 10 5.6
2020-Jan-27 22:49 300 3 gusting 10 6.1
2020-Jan-27 22:44 326 3 gusting 7 6.1
2020-Jan-27 22:39 329 4 gusting 12 6.1
2020-Jan-27 22:34 318 2 gusting 8 6.1
2020-Jan-27 22:29 326 2 gusting 6 6.1
2020-Jan-27 22:24 286 2 gusting 8 6.1
2020-Jan-27 22:19 314 3 gusting 8 6.1
2020-Jan-27 22:14 323 2 gusting 5 6.1
2020-Jan-27 22:09 276 2 gusting 10 6.7
2020-Jan-27 22:04 287 2 gusting 10 6.7
2020-Jan-27 21:59 340 2 gusting 6 6.7
2020-Jan-27 21:54 291 3 gusting 10 6.7
2020-Jan-27 21:49 260 3 gusting 10 6.7
2020-Jan-27 21:44 329 4 gusting 12 6.7
2020-Jan-27 21:39 314 4 gusting 11 6.7
2020-Jan-27 21:34 296 3 gusting 10 7.2
2020-Jan-27 21:29 285 2 gusting 6 7.2
2020-Jan-27 21:24 313 4 gusting 11 7.2
2020-Jan-27 21:19 311 4 gusting 10 7.2
2020-Jan-27 21:14 319 2 gusting 15 7.2
2020-Jan-27 21:09 240 4 gusting 12 7.2
2020-Jan-27 21:04 285 3 gusting 10 7.2
2020-Jan-27 20:59 312 3 gusting 11 7.2
2020-Jan-27 20:54 250 1 gusting 5 7.8
2020-Jan-27 20:49 293 2 gusting 7 7.8
2020-Jan-27 20:44 354 2 gusting 10 7.8
2020-Jan-27 20:39 318 1 gusting 7 7.8
2020-Jan-27 20:34 303 2 gusting 7 7.8
2020-Jan-27 20:29 317 3 gusting 5 7.8
2020-Jan-27 20:24 353 1 gusting 7 7.8
2020-Jan-27 20:19 315 2 gusting 7 7.8
2020-Jan-27 20:14 237 2 gusting 6 7.8
2020-Jan-27 20:09 287 3 gusting 10 7.8
2020-Jan-27 20:04 317 2 gusting 6 7.8
2020-Jan-27 19:59 323 4 gusting 8 7.8
2020-Jan-27 19:54 304 4 gusting 11 8.3
2020-Jan-27 19:49 302 5 gusting 12 8.3
2020-Jan-27 19:44 271 3 gusting 10 8.3
2020-Jan-27 19:39 334 4 gusting 10 8.3
2020-Jan-27 19:34 270 3 gusting 13 8.9
2020-Jan-27 19:29 324 2 gusting 8 8.9
2020-Jan-27 19:24 225 2 gusting 10 9.4
2020-Jan-27 19:19 351 4 gusting 7 9.4
2020-Jan-27 19:14 284 2 gusting 7 9.4
2020-Jan-27 19:09 255 2 gusting 10 9.4
2020-Jan-27 19:04 294 5 gusting 11 9.4
2020-Jan-27 18:59 341 2 gusting 8 9.4
2020-Jan-27 18:54 337 2 gusting 10 9.4
2020-Jan-27 18:49 289 3 gusting 8 9.4
2020-Jan-27 18:44 313 2 gusting 6 8.9
2020-Jan-27 18:39 227 2 gusting 6 8.9
2020-Jan-27 18:34 280 4 gusting 11 9.4
2020-Jan-27 18:29 297 3 gusting 10 9.4
2020-Jan-27 18:24 225 2 gusting 6 8.9
2020-Jan-27 18:19 350 3 gusting 10 8.3
2020-Jan-27 18:14 263 2 gusting 6 8.3
2020-Jan-27 18:09 289 2 gusting 6 8.3
2020-Jan-27 18:04 332 2 gusting 6 8.3
2020-Jan-27 17:59 321 2 gusting 12 8.3
2020-Jan-27 17:54 282 2 gusting 7 8.3
2020-Jan-27 17:49 332 2 gusting 10 8.3
2020-Jan-27 17:44 300 3 gusting 8 8.3
2020-Jan-27 17:39 298 3 gusting 7 8.3
2020-Jan-27 17:34 292 2 gusting 5 8.9
2020-Jan-27 17:29 229 2 gusting 10 8.9
2020-Jan-27 17:24 242 2 gusting 10 8.3
2020-Jan-27 17:19 245 2 gusting 6 8.3
2020-Jan-27 17:14 245 4 gusting 8 8.3
2020-Jan-27 17:09 308 3 gusting 10 8.3
2020-Jan-27 17:04 244 2 gusting 7 8.3
2020-Jan-27 16:59 285 4 gusting 7 8.3
2020-Jan-27 16:54 298 3 gusting 6 8.3
2020-Jan-27 16:49 227 3 gusting 7 8.3
2020-Jan-27 16:44 257 4 gusting 8 8.3
2020-Jan-27 16:39 248 2 gusting 7 8.3
2020-Jan-27 16:34 299 4 gusting 11 8.3
2020-Jan-27 16:29 307 4 gusting 10 8.3
2020-Jan-27 16:24 233 5 gusting 10 8.9
2020-Jan-27 16:19 256 4 gusting 8 8.9
2020-Jan-27 16:14 271 2 gusting 8 8.3
2020-Jan-27 16:09 243 3 gusting 7 8.3
2020-Jan-27 16:04 335 4 gusting 12 8.9
2020-Jan-27 15:59 235 3 gusting 10 8.9
2020-Jan-27 15:54 328 1 gusting 10 8.9
2020-Jan-27 15:49 250 2 gusting 6 8.9
2020-Jan-27 15:44 257 2 gusting 7 8.3
2020-Jan-27 15:39 318 2 gusting 5 7.8
2020-Jan-27 15:34 246 4 gusting 10 7.8
2020-Jan-27 15:29 218 2 gusting 6 7.8
2020-Jan-27 15:24 255 1 gusting 4 7.8
2020-Jan-27 15:19 208 0 gusting 2 7.2
2020-Jan-27 15:14 219 0 gusting 2 6.7
2020-Jan-27 15:09 214 0 gusting 2 6.7
2020-Jan-27 15:04 186 0 gusting 2 6.7
2020-Jan-27 14:59 202 0 gusting 2 6.1
2020-Jan-27 14:54 200 0 gusting 2 5.6
2020-Jan-27 14:49 189 1 gusting 2 5.6
2020-Jan-27 14:44 190 0 gusting 2 5.0
2020-Jan-27 14:39 188 1 gusting 2 5.0
2020-Jan-27 14:34 204 1 gusting 2 4.4
2020-Jan-27 14:29 272 4.4
2020-Jan-27 14:24 279 3.9
2020-Jan-27 14:19 284 3.9
2020-Jan-27 14:14 292 3.3
2020-Jan-27 14:09 292 3.3
2020-Jan-27 14:04 292 2.8
2020-Jan-27 13:59 292 2.8
2020-Jan-27 13:54 292 2.8
2020-Jan-27 13:49 292 2.2
2020-Jan-27 13:44 292 2.2
2020-Jan-27 13:39 292 2.2
2020-Jan-27 13:34 292 0 gusting 0 2.2
2020-Jan-27 13:29 292 2.2
2020-Jan-27 13:24 292 2.2
2020-Jan-27 13:19 292 2.2
2020-Jan-27 13:14 292 1.7
2020-Jan-27 13:09 292 1.7
2020-Jan-27 13:04 292 1.7
2020-Jan-27 12:59 292 1.7
2020-Jan-27 12:54 296 2.2
2020-Jan-27 12:49 296 2.2
2020-Jan-27 12:44 296 2.8
2020-Jan-27 12:39 296 2.2
2020-Jan-27 12:34 301 1 gusting 2 1.7
2020-Jan-27 12:29 355 0 gusting 2 1.1
2020-Jan-27 12:24 259 0 gusting 2 0.6
2020-Jan-27 12:19 198 0 gusting 2 0.6
2020-Jan-27 12:14 153 -0.0
2020-Jan-27 12:09 153 0 gusting 0 -0.0
2020-Jan-27 12:04 150 0.6
2020-Jan-27 11:59 150 0.6
2020-Jan-27 11:54 150 0 gusting 1 0.6
2020-Jan-27 11:49 150 0 gusting 1 0.6
2020-Jan-27 11:44 150 0 gusting 2 -0.0
2020-Jan-27 11:39 153 1 gusting 2 -0.0
2020-Jan-27 11:34 153 -0.0
2020-Jan-27 11:29 175 0 gusting 1 -0.0
2020-Jan-27 11:24 223 0 gusting 1 -0.0
2020-Jan-27 11:19 204 -0.0
2020-Jan-27 11:14 206 -0.6
2020-Jan-27 11:09 244 -0.6
2020-Jan-27 11:04 307 0 gusting 2 -0.6
2020-Jan-27 10:59 297 0 gusting 1 -0.6
2020-Jan-27 10:54 294 -0.6
2020-Jan-27 10:49 284 0 gusting 2 -0.6
2020-Jan-27 10:44 295 0 gusting 2 -0.6
2020-Jan-27 10:39 333 1 gusting 2 -1.1
2020-Jan-27 10:34 117 0 gusting 1 -1.1
2020-Jan-27 10:29 292 -1.1
2020-Jan-27 10:24 292 -1.1
2020-Jan-27 10:19 292 -1.1
2020-Jan-27 10:14 292 -1.1
2020-Jan-27 10:09 292 -1.1
2020-Jan-27 10:04 292 -1.7
2020-Jan-27 09:59 292 -1.7
2020-Jan-27 09:54 292 -1.7
2020-Jan-27 09:49 292 -1.7
2020-Jan-27 09:44 292 -1.7
2020-Jan-27 09:39 309 -1.7
2020-Jan-27 09:34 309 -1.7
2020-Jan-27 09:29 309 -1.7
2020-Jan-27 09:24 309 -1.7
2020-Jan-27 09:19 309 -1.7
2020-Jan-27 09:14 309 -1.7
2020-Jan-27 09:09 309 -1.7
2020-Jan-27 09:04 309 -1.7
2020-Jan-27 08:59 309 -1.7
2020-Jan-27 08:54 309 -1.7
2020-Jan-27 08:49 309 -1.1
2020-Jan-27 08:44 309 0 gusting 1 -1.1
2020-Jan-27 08:39 309 0 gusting 0 -1.1
2020-Jan-27 08:34 309 -1.1
2020-Jan-27 08:29 309 -1.1
2020-Jan-27 08:24 309 -1.1
2020-Jan-27 08:19 309 0 gusting 0 -1.1
2020-Jan-27 08:14 309 -1.1
2020-Jan-27 08:09 309 0 gusting 2 -1.1
2020-Jan-27 08:04 309 -1.1
2020-Jan-27 07:59 309 -0.6
2020-Jan-27 07:54 309 -0.6
2020-Jan-27 07:49 309 -0.6
2020-Jan-27 07:44 309 0 gusting 1 -0.6
2020-Jan-27 07:39 309 -0.6
2020-Jan-27 07:34 309 -0.6
2020-Jan-27 07:29 309 -0.0
2020-Jan-27 07:24 309 0 gusting 1 -0.0
2020-Jan-27 07:19 309 0 gusting 1 -0.0
2020-Jan-27 07:14 309 0 gusting 1 0.6
2020-Jan-27 07:09 308 0.6
2020-Jan-27 07:04 308 0.6
2020-Jan-27 06:59 308 0.6
2020-Jan-27 06:54 308 0.6
2020-Jan-27 06:49 308 1.1
2020-Jan-27 06:44 308 1.1
2020-Jan-27 06:39 308 1.1
2020-Jan-27 06:34 308 0.6
2020-Jan-27 06:29 308 0.6
2020-Jan-27 06:24 308 0.6
2020-Jan-27 06:19 308 0.6
2020-Jan-27 06:14 308 0.6
2020-Jan-27 06:09 308 0.6
2020-Jan-27 06:04 308 -0.0
2020-Jan-27 05:59 308 -0.0
2020-Jan-27 05:54 308 -0.0
2020-Jan-27 05:49 308 -0.0
2020-Jan-27 05:44 308 -0.0
2020-Jan-27 05:39 308 -0.0
2020-Jan-27 05:34 308 -0.0
2020-Jan-27 05:29 308 -0.0
2020-Jan-27 05:24 308 -0.0
2020-Jan-27 05:19 308 -0.0
2020-Jan-27 05:14 308 -0.6
2020-Jan-27 05:09 308 -0.6
2020-Jan-27 05:04 308 -0.6
2020-Jan-27 04:59 308 -0.6
2020-Jan-27 04:54 308 -0.6
2020-Jan-27 04:49 308 -0.6
2020-Jan-27 04:44 308 -0.6
2020-Jan-27 04:39 308 -0.0
2020-Jan-27 04:34 308 -0.0
2020-Jan-27 04:29 308 -0.0
2020-Jan-27 04:24 308 -0.0
2020-Jan-27 04:19 308 -0.0
2020-Jan-27 04:14 308 -0.0
2020-Jan-27 04:09 308 -0.0
2020-Jan-27 04:04 308 -0.0
2020-Jan-27 03:59 311 0.6
2020-Jan-27 03:54 315 0.6
2020-Jan-27 03:49 315 0.6
2020-Jan-27 03:44 315 1.1
2020-Jan-27 03:39 315 1.1
2020-Jan-27 03:34 315 1.1
2020-Jan-27 03:29 315 1.7
2020-Jan-27 03:24 315 1.7
2020-Jan-27 03:19 315 2.2
2020-Jan-27 03:14 315 2.2
2020-Jan-27 03:09 315 2.2
2020-Jan-27 03:04 315 2.8
2020-Jan-27 02:59 315 2.8
2020-Jan-27 02:54 315 2.8
2020-Jan-27 02:49 315 3.3
2020-Jan-27 02:44 315 3.3
2020-Jan-27 02:39 315 3.3
2020-Jan-27 02:34 315 3.9
2020-Jan-27 02:29 315 3.9
2020-Jan-27 02:24 315 3.9
2020-Jan-27 02:19 315 4.4
2020-Jan-27 02:14 315 4.4
2020-Jan-27 02:09 315 4.4
2020-Jan-27 02:04 315 4.4
2020-Jan-27 01:59 329 4.4
2020-Jan-27 01:54 329 4.4
2020-Jan-27 01:49 329 4.4
2020-Jan-27 01:44 323 0 gusting 2 4.4
2020-Jan-27 01:39 335 0 gusting 1 5.0
2020-Jan-27 01:34 336 0 gusting 1 5.0
2020-Jan-27 01:29 333 5.0
2020-Jan-27 01:24 334 0 gusting 2 5.0
2020-Jan-27 01:19 244 5.0
2020-Jan-27 01:14 318 0 gusting 5 5.0
2020-Jan-27 01:09 318 1 gusting 4 5.0
2020-Jan-27 01:04 324 0 gusting 4 5.0
2020-Jan-27 00:59 317 1 gusting 2 5.0
2020-Jan-27 00:54 297 1 gusting 2 5.0
2020-Jan-27 00:49 288 0 gusting 2 5.0
2020-Jan-27 00:44 309 2 gusting 6 5.0
2020-Jan-27 00:39 274 0 gusting 2 5.0
2020-Jan-27 00:34 355 0 gusting 5 5.0
2020-Jan-27 00:29 277 1 gusting 5 5.0
2020-Jan-27 00:24 301 2 gusting 8 5.0
2020-Jan-27 00:19 237 1 gusting 4 5.0
2020-Jan-27 00:14 263 0 gusting 12 5.0
2020-Jan-27 00:09 301 1 gusting 10 5.0
2020-Jan-27 00:04 321 1 gusting 6 5.0
2020-Jan-26 23:59 316 1 gusting 6 5.0
2020-Jan-26 23:54 250 1 gusting 4 5.0
2020-Jan-26 23:49 311 1 gusting 2 5.0
2020-Jan-26 23:44 336 0 gusting 4 5.6
2020-Jan-26 23:39 311 0 gusting 2 5.6
2020-Jan-26 23:34 296 0 gusting 2 5.6
2020-Jan-26 23:29 267 1 gusting 2 5.6
2020-Jan-26 23:24 276 1 gusting 2 5.6
2020-Jan-26 23:19 205 0 gusting 2 5.6
2020-Jan-26 23:14 234 0 gusting 2 5.6
2020-Jan-26 23:09 338 1 gusting 4 5.6
2020-Jan-26 23:04 296 0 gusting 2 5.6
2020-Jan-26 22:59 308 1 gusting 4 5.6
2020-Jan-26 22:54 314 0 gusting 4 5.6
2020-Jan-26 22:49 010 1 gusting 5 5.6
2020-Jan-26 22:44 241 0 gusting 2 5.6
2020-Jan-26 22:39 294 1 gusting 4 6.1
2020-Jan-26 22:34 313 2 gusting 8 6.1
2020-Jan-26 22:29 307 2 gusting 6 6.1
2020-Jan-26 22:24 338 2 gusting 5 6.1
2020-Jan-26 22:19 309 1 gusting 5 6.1
2020-Jan-26 22:14 291 1 gusting 5 6.1
2020-Jan-26 22:09 328 1 gusting 4 6.1
2020-Jan-26 22:04 300 1 gusting 2 6.1